Time;durP1;ratioP1;P1;durP2;ratioP2;P2;SDS_P1;SDS_P2;PMS_P1;PMS_P2;Temp;Humidity;BMP_temperature;BMP_pressure;BME280_temperature;BME280_humidity;BME280_pressure;Samples;Min_cycle;Max_cycle;Signal;HPM_P1;HPM_P2
2021/10/20 00:01:37;;;;;;;;;;;;;;;20.84;84.72;100392.16;7285518;19;151884;-54
2021/10/20 00:04:05;;;;;;;;;;;;;;;20.86;84.48;100400.25;7285993;19;153179;-54
2021/10/20 00:06:32;;;;;;;;;;;;;;;20.86;84.31;100395.47;7292260;19;153309;-53
2021/10/20 00:08:59;;;;;;;;;;;;;;;20.88;84.11;100375.50;7285776;19;152687;-54
2021/10/20 00:11:25;;;;;;;;;;;;;;;20.87;84.76;100379.44;7284406;19;153954;-54
2021/10/20 00:13:52;;;;;;;;;;;;;;;20.86;84.74;100378.63;7287528;19;152308;-55
2021/10/20 00:16:19;;;;;;;;;;;;;;;20.87;84.90;100365.41;7287487;19;153347;-55
2021/10/20 00:18:49;;;;;;;;;;;;;;;20.86;85.19;100356.16;7286435;19;152128;-54
2021/10/20 00:21:19;;;;;;;;;;;;;;;20.87;84.97;100345.75;7285609;19;151936;-54
2021/10/20 00:23:47;;;;;;;;;;;;;;;20.86;85.28;100344.91;7285118;19;153191;-54
2021/10/20 00:26:14;;;;;;;;;;;;;;;20.87;85.02;100345.75;7292211;19;153523;-54
2021/10/20 00:28:41;;;;;;;;;;;;;;;20.87;85.02;100348.56;7283811;19;153541;-54
2021/10/20 00:31:08;;;;;;;;;;;;;;;20.88;84.95;100347.41;7283503;19;154071;-54
2021/10/20 00:33:35;;;;;;;;;;;;;;;20.88;84.94;100347.41;7287478;19;151988;-54
2021/10/20 00:36:02;;;;;;;;;;;;;;;20.88;85.29;100322.16;7286062;19;153397;-54
2021/10/20 00:38:28;;;;;;;;;;;;;;;20.89;85.05;100320.16;7285201;19;154456;-54
2021/10/20 00:40:56;;;;;;;;;;;;;;;20.88;85.33;100324.13;7286940;19;151647;-54
2021/10/20 00:43:23;;;;;;;;;;;;;;;20.89;85.09;100325.78;7288002;19;152669;-54
2021/10/20 00:45:51;;;;;;;;;;;;;;;20.88;85.64;100310.09;7285914;19;153852;-54
2021/10/20 00:48:18;;;;;;;;;;;;;;;20.89;85.78;100306.13;7293916;19;151787;-54
2021/10/20 00:50:44;;;;;;;;;;;;;;;20.88;85.70;100307.28;7283127;19;154311;-54
2021/10/20 00:53:11;;;;;;;;;;;;;;;20.88;85.83;100299.69;7286900;19;151935;-54
2021/10/20 00:55:38;;;;;;;;;;;;;;;20.89;85.26;100303.31;7285406;19;153321;-54
2021/10/20 00:58:05;;;;;;;;;;;;;;;20.88;85.69;100301.66;7284431;19;153257;-56
2021/10/20 01:00:32;;;;;;;;;;;;;;;20.85;85.62;100284.28;7283415;19;151667;-55
2021/10/20 01:03:00;;;;;;;;;;;;;;;20.86;85.70;100283.16;7286122;19;153138;-54
2021/10/20 01:05:27;;;;;;;;;;;;;;;20.88;85.67;100287.63;7284682;19;154494;-54
2021/10/20 01:07:54;;;;;;;;;;;;;;;20.86;85.42;100285.97;7282505;19;151674;-54
2021/10/20 01:10:21;;;;;;;;;;;;;;;20.85;85.87;100270.25;7289043;19;153306;-54
2021/10/20 01:12:47;;;;;;;;;;;;;;;20.85;85.41;100267.44;7283092;19;151576;-54
2021/10/20 01:15:17;;;;;;;;;;;;;;;20.86;85.97;100271.91;7285932;19;152800;-54
2021/10/20 01:17:45;;;;;;;;;;;;;;;20.86;85.59;100266.31;7283889;19;153296;-54
2021/10/20 01:20:12;;;;;;;;;;;;;;;20.85;85.70;100256.22;7280234;19;151817;-54
2021/10/20 01:22:39;;;;;;;;;;;;;;;20.87;86.19;100255.91;7284793;19;151596;-54
2021/10/20 01:25:08;;;;;;;;;;;;;;;20.86;86.23;100251.44;7281899;19;154543;-54
2021/10/20 01:27:35;;;;;;;;;;;;;;;20.85;86.31;100256.22;7284614;19;151958;-55
2021/10/20 01:30:04;;;;;;;;;;;;;;;20.88;86.16;100256.72;7282528;19;152638;-54
2021/10/20 01:32:31;;;;;;;;;;;;;;;20.86;86.63;100257.88;7290152;19;153696;-54
2021/10/20 01:34:57;;;;;;;;;;;;;;;20.86;86.35;100248.63;7283129;19;152669;-54
2021/10/20 01:37:25;;;;;;;;;;;;;;;20.86;86.35;100251.44;7287420;19;153949;-54
2021/10/20 01:39:56;;;;;;;;;;;;;;;20.86;86.17;100263.50;7289558;19;151601;-54
2021/10/20 01:42:40;;;;;;;;;;;;;;;20.87;87.00;100272.75;7284517;19;152602;-54
2021/10/20 01:45:10;;;;;;;;;;;;;;;20.86;87.26;100271.09;7288838;19;154202;-57
2021/10/20 01:47:37;;;;;;;;;;;;;;;20.87;87.13;100253.09;7291510;19;151781;-55
2021/10/20 01:50:06;;;;;;;;;;;;;;;20.86;86.96;100252.25;7287995;19;152765;-54
2021/10/20 01:52:35;;;;;;;;;;;;;;;20.86;87.72;100257.88;7287894;19;154009;-54
2021/10/20 01:55:04;;;;;;;;;;;;;;;20.87;87.06;100267.13;7296571;19;151893;-54
2021/10/20 01:57:31;;;;;;;;;;;;;;;20.87;87.02;100258.72;7286815;19;153739;-54
2021/10/20 01:59:58;;;;;;;;;;;;;;;20.89;87.37;100252.78;7291425;19;151729;-55
2021/10/20 02:02:25;;;;;;;;;;;;;;;20.88;87.46;100251.13;7290774;19;152833;-54
2021/10/20 02:04:53;;;;;;;;;;;;;;;20.88;87.44;100251.94;7290550;19;154315;-55
2021/10/20 02:07:20;;;;;;;;;;;;;;;20.88;87.33;100260.38;7291577;19;151869;-54
2021/10/20 02:09:48;;;;;;;;;;;;;;;20.87;87.64;100253.09;7287067;19;152676;-55
2021/10/20 02:12:15;;;;;;;;;;;;;;;20.88;88.01;100263.19;7289819;19;153327;-54
2021/10/20 02:14:42;;;;;;;;;;;;;;;20.89;87.97;100249.97;7289215;19;151703;-54
2021/10/20 02:17:09;;;;;;;;;;;;;;;20.89;87.56;100258.38;7295313;19;153441;-54
2021/10/20 02:19:36;;;;;;;;;;;;;;;20.89;88.05;100249.97;7289007;19;152135;-54
2021/10/20 02:22:04;;;;;;;;;;;;;;;20.90;87.95;100245.97;7289655;19;153281;-55
2021/10/20 02:24:31;;;;;;;;;;;;;;;20.88;87.60;100246.31;7287334;19;153647;-55
2021/10/20 02:26:58;;;;;;;;;;;;;;;20.89;88.21;100238.72;7290249;19;151749;-55
2021/10/20 02:29:25;;;;;;;;;;;;;;;20.89;88.08;100248.00;7288861;19;153689;-56
2021/10/20 02:31:52;;;;;;;;;;;;;;;20.88;87.94;100240.72;7289350;19;153964;-55
2021/10/20 02:34:20;;;;;;;;;;;;;;;20.89;87.74;100235.94;7290048;19;152626;-55
2021/10/20 02:36:47;;;;;;;;;;;;;;;20.88;88.02;100221.06;7294739;19;152548;-55
2021/10/20 02:39:14;;;;;;;;;;;;;;;20.88;87.83;100209.00;7289730;19;151761;-54
2021/10/20 02:41:41;;;;;;;;;;;;;;;20.88;87.64;100206.19;7288259;19;151839;-54
2021/10/20 02:44:08;;;;;;;;;;;;;;;20.88;88.11;100183.72;7286001;19;152409;-54
2021/10/20 02:46:36;;;;;;;;;;;;;;;20.86;88.17;100162.41;7287071;19;151737;-54
2021/10/20 02:49:03;;;;;;;;;;;;;;;20.86;87.84;100139.94;7284012;19;152787;-54
2021/10/20 02:51:30;;;;;;;;;;;;;;;20.88;88.29;100121.94;7285825;19;154190;-54
2021/10/20 02:53:58;;;;;;;;;;;;;;;20.88;88.23;100105.94;7289962;19;152265;-54
2021/10/20 02:56:25;;;;;;;;;;;;;;;20.88;88.08;100108.75;7289582;19;153357;-54
2021/10/20 02:58:53;;;;;;;;;;;;;;;20.88;88.17;100110.72;7292156;19;153248;-54
2021/10/20 03:01:20;;;;;;;;;;;;;;;20.87;88.41;100079.00;7287637;19;152897;-54
2021/10/20 03:03:47;;;;;;;;;;;;;;;20.86;88.74;100052.91;7287793;19;152606;-54
2021/10/20 03:06:15;;;;;;;;;;;;;;;20.88;88.79;100051.75;7289353;19;151851;-54
2021/10/20 03:08:42;;;;;;;;;;;;;;;20.88;88.67;100074.22;7289472;19;152834;-54
2021/10/20 03:11:10;;;;;;;;;;;;;;;20.88;88.92;100080.66;7284879;19;153378;-54
2021/10/20 03:13:37;;;;;;;;;;;;;;;20.87;88.78;100098.66;7287166;19;151885;-55
2021/10/20 03:16:04;;;;;;;;;;;;;;;20.87;89.09;100073.38;7288652;19;152525;-54
2021/10/20 03:18:33;;;;;;;;;;;;;;;20.88;89.50;100074.22;7287550;19;154135;-54
2021/10/20 03:21:00;;;;;;;;;;;;;;;20.88;89.29;100069.44;7294237;19;152297;-54
2021/10/20 03:23:27;;;;;;;;;;;;;;;20.87;89.97;100053.72;7287165;19;153856;-54
2021/10/20 03:25:54;;;;;;;;;;;;;;;20.88;89.36;100072.25;7288917;19;151855;-54
2021/10/20 03:28:22;;;;;;;;;;;;;;;20.88;89.46;100077.84;7287188;19;152724;-54
2021/10/20 03:30:49;;;;;;;;;;;;;;;20.88;89.62;100077.03;7283816;19;153522;-54
2021/10/20 03:33:16;;;;;;;;;;;;;;;20.87;89.86;100081.81;7288392;19;151923;-54
2021/10/20 03:35:43;;;;;;;;;;;;;;;20.87;90.03;100090.22;7287741;19;155220;-54
2021/10/20 03:38:11;;;;;;;;;;;;;;;20.86;90.02;100088.56;7287134;19;154050;-54
2021/10/20 03:40:38;;;;;;;;;;;;;;;20.87;90.19;100090.22;7287257;19;151642;-54
2021/10/20 03:43:09;;;;;;;;;;;;;;;20.86;90.27;100074.53;7295178;19;152736;-55
2021/10/20 03:45:37;;;;;;;;;;;;;;;20.86;89.64;100064.13;7288298;19;151897;-54
2021/10/20 03:48:05;;;;;;;;;;;;;;;20.84;90.01;100060.84;7288152;19;153310;-55
2021/10/20 03:50:32;;;;;;;;;;;;;;;20.86;89.72;100032.41;7282747;19;154460;-55
2021/10/20 03:52:59;;;;;;;;;;;;;;;20.85;89.83;100027.94;7286217;19;151756;-55
2021/10/20 03:55:26;;;;;;;;;;;;;;;20.85;89.41;100033.56;7286937;19;152614;-55
2021/10/20 03:57:52;;;;;;;;;;;;;;;20.84;89.04;100027.16;7283978;19;153955;-58
2021/10/20 04:00:19;;;;;;;;;;;;;;;20.84;89.47;100013.13;7285662;19;152042;-55
2021/10/20 04:02:46;;;;;;;;;;;;;;;20.85;88.97;100011.09;7286672;19;152604;-54
2021/10/20 04:05:15;;;;;;;;;;;;;;;20.85;89.24;100019.53;7293792;19;153560;-54
2021/10/20 04:07:42;;;;;;;;;;;;;;;20.86;89.04;100012.75;7286229;19;152850;-55
2021/10/20 04:10:13;;;;;;;;;;;;;;;20.84;89.08;100007.50;7285166;19;153638;-54
2021/10/20 04:12:40;;;;;;;;;;;;;;;20.85;89.10;100011.09;7287990;19;151797;-54
2021/10/20 04:15:08;;;;;;;;;;;;;;;20.84;89.44;99978.59;7287807;19;152705;-54
2021/10/20 04:17:35;;;;;;;;;;;;;;;20.83;89.22;99971.31;7284222;19;154140;-54
2021/10/20 04:20:02;;;;;;;;;;;;;;;20.84;89.49;99990.66;7286597;19;151621;-54
2021/10/20 04:22:29;;;;;;;;;;;;;;;20.84;89.29;99989.84;7287748;19;152889;-54
2021/10/20 04:24:56;;;;;;;;;;;;;;;20.84;89.71;99979.44;7285789;19;153372;-54
2021/10/20 04:27:23;;;;;;;;;;;;;;;20.83;89.82;99944.09;7295454;19;151577;-54
2021/10/20 04:29:50;;;;;;;;;;;;;;;20.84;89.46;99934.50;7285225;19;153485;-54
2021/10/20 04:32:17;;;;;;;;;;;;;;;20.84;89.77;99933.69;7287178;19;151719;-55
2021/10/20 04:34:44;;;;;;;;;;;;;;;20.84;89.47;99931.69;7287689;19;152646;-55
2021/10/20 04:37:11;;;;;;;;;;;;;;;20.85;89.59;99938.94;7284694;19;152326;-55
2021/10/20 04:39:38;;;;;;;;;;;;;;;20.84;90.56;99928.06;7286261;19;151848;-55
2021/10/20 04:42:05;;;;;;;;;;;;;;;20.84;90.71;99928.88;7286914;19;152801;-54
2021/10/20 04:44:32;;;;;;;;;;;;;;;20.84;91.25;99928.88;7285348;19;153967;-55
2021/10/20 04:46:59;;;;;;;;;;;;;;;20.85;90.61;99922.09;7294183;19;151737;-55
2021/10/20 04:49:26;;;;;;;;;;;;;;;20.85;90.83;99910.03;7285640;19;153712;-54
2021/10/20 04:51:53;;;;;;;;;;;;;;;20.85;91.20;99908.06;7286217;19;151875;-54
2021/10/20 04:54:20;;;;;;;;;;;;;;;20.84;91.69;99900.00;7286592;19;152856;-54
2021/10/20 04:56:47;;;;;;;;;;;;;;;20.83;91.25;99893.53;7285192;19;154006;-55
2021/10/20 04:59:14;;;;;;;;;;;;;;;20.83;91.13;99896.34;7283638;19;151494;-55
2021/10/20 05:01:41;;;;;;;;;;;;;;;20.84;91.16;99895.19;7285257;19;152639;-55
2021/10/20 05:04:09;;;;;;;;;;;;;;;20.85;90.65;99894.00;7284594;19;153983;-54
2021/10/20 05:06:35;;;;;;;;;;;;;;;20.84;91.19;99883.97;7284893;19;151685;-54
2021/10/20 05:09:03;;;;;;;;;;;;;;;20.84;90.75;99880.34;7291557;19;152587;-55
2021/10/20 05:11:30;;;;;;;;;;;;;;;20.84;91.24;99875.53;7283068;19;151812;-54
2021/10/20 05:13:57;;;;;;;;;;;;;;;20.84;91.42;99880.34;7284786;19;152652;-54
2021/10/20 05:16:24;;;;;;;;;;;;;;;20.84;90.82;99869.94;7285045;19;153401;-55
2021/10/20 05:18:51;;;;;;;;;;;;;;;20.84;91.03;99869.09;7282633;19;152501;-54
2021/10/20 05:21:18;;;;;;;;;;;;;;;20.84;90.99;99867.13;7285730;19;153750;-54
2021/10/20 05:23:49;;;;;;;;;;;;;;;20.83;91.34;99868.28;7284088;19;153874;-54
2021/10/20 05:26:17;;;;;;;;;;;;;;;20.84;91.00;99867.13;7285198;19;151918;-54
2021/10/20 05:28:44;;;;;;;;;;;;;;;20.83;91.42;99862.66;7285203;19;153238;-54
2021/10/20 05:31:11;;;;;;;;;;;;;;;20.83;91.30;99865.47;7288038;19;154021;-55
2021/10/20 05:33:39;;;;;;;;;;;;;;;20.85;91.08;99862.31;7286521;19;153297;-55
2021/10/20 05:36:08;;;;;;;;;;;;;;;20.84;90.92;99855.88;7284021;19;154316;-54
2021/10/20 05:38:35;;;;;;;;;;;;;;;20.85;90.75;99856.69;7284026;19;151783;-55
2021/10/20 05:41:03;;;;;;;;;;;;;;;20.84;91.11;99858.69;7285095;19;153622;-55
2021/10/20 05:43:30;;;;;;;;;;;;;;;20.83;91.16;99856.22;7283545;19;153216;-54
2021/10/20 05:45:57;;;;;;;;;;;;;;;20.84;90.97;99853.09;7284857;19;151675;-54
2021/10/20 05:48:24;;;;;;;;;;;;;;;20.84;91.18;99843.84;7284362;19;153354;-54
2021/10/20 05:50:51;;;;;;;;;;;;;;;20.84;91.39;99841.84;7282109;19;153924;-54
2021/10/20 05:53:19;;;;;;;;;;;;;;;20.85;91.79;99845.47;7290618;19;151724;-54
2021/10/20 05:55:46;;;;;;;;;;;;;;;20.85;91.22;99843.47;7283027;19;154625;-55
2021/10/20 05:58:13;;;;;;;;;;;;;;;20.85;91.58;99842.66;7281071;19;152292;-55
2021/10/20 06:00:41;;;;;;;;;;;;;;;20.84;92.01;99844.66;7283696;19;153259;-59
2021/10/20 06:03:08;;;;;;;;;;;;;;;20.84;91.48;99853.09;7283747;19;153308;-55
2021/10/20 06:05:36;;;;;;;;;;;;;;;20.83;91.49;99857.03;7283828;19;151567;-54
2021/10/20 06:08:03;;;;;;;;;;;;;;;20.83;91.64;99850.59;7283962;19;152765;-54
2021/10/20 06:10:32;;;;;;;;;;;;;;;20.83;91.97;99859.03;7282481;19;153444;-54
2021/10/20 06:12:59;;;;;;;;;;;;;;;20.82;92.14;99861.00;7284036;19;151541;-54
2021/10/20 06:15:26;;;;;;;;;;;;;;;20.82;91.82;99866.63;7290360;19;152787;-54
2021/10/20 06:18:03;;;;;;;;;;;;;;;20.88;91.64;99867.25;7281687;19;151897;-54
2021/10/20 06:20:30;;;;;;;;;;;;;;;20.88;91.96;99878.50;7283455;19;153737;-54
2021/10/20 06:22:57;;;;;;;;;;;;;;;20.85;91.63;99868.75;7283065;19;153896;-54
2021/10/20 06:25:24;;;;;;;;;;;;;;;20.85;92.10;99873.53;7290458;19;151768;-55
2021/10/20 06:27:51;;;;;;;;;;;;;;;20.84;91.76;99875.53;7289740;19;153103;-55
2021/10/20 06:30:18;;;;;;;;;;;;;;;20.84;91.54;99869.94;7289353;19;153474;-54
2021/10/20 06:32:45;;;;;;;;;;;;;;;20.83;91.20;99862.66;7289945;19;151601;-54
2021/10/20 06:35:13;;;;;;;;;;;;;;;20.83;91.08;99871.09;7290582;19;152719;-54
2021/10/20 06:37:40;;;;;;;;;;;;;;;20.76;93.41;99876.38;7295371;19;151713;-54
2021/10/20 06:40:07;;;;;;;;;;;;;;;20.66;95.73;99885.19;7289426;19;153433;-53
2021/10/20 06:42:34;;;;;;;;;;;;;;;20.69;94.18;99881.69;7288126;19;153492;-54
2021/10/20 06:45:03;;;;;;;;;;;;;;;20.73;93.03;99890.28;7289718;19;152175;-56
2021/10/20 06:47:30;;;;;;;;;;;;;;;20.73;92.40;99885.47;7290003;19;153675;-54
2021/10/20 06:49:57;;;;;;;;;;;;;;;20.74;92.16;99892.75;7286353;19;153958;-53
2021/10/20 06:52:25;;;;;;;;;;;;;;;20.74;91.96;99891.94;7286643;19;153995;-54
2021/10/20 06:54:52;;;;;;;;;;;;;;;20.78;91.05;99890.91;7289182;19;153621;-54
2021/10/20 06:57:19;;;;;;;;;;;;;;;20.78;90.68;99874.06;7295561;19;154792;-54
2021/10/20 06:59:46;;;;;;;;;;;;;;;20.79;89.79;99880.50;7286889;19;153756;-54
2021/10/20 07:02:13;;;;;;;;;;;;;;;20.80;89.25;99885.78;7286561;19;153280;-54
2021/10/20 07:04:41;;;;;;;;;;;;;;;20.79;88.87;99878.53;7289817;19;151777;-54
2021/10/20 07:07:12;;;;;;;;;;;;;;;20.79;88.74;99883.31;7288585;19;152703;-54
2021/10/20 07:09:39;;;;;;;;;;;;;;;20.79;88.08;99888.94;7288133;19;154170;-54
2021/10/20 07:12:06;;;;;;;;;;;;;;;20.79;88.02;99909.41;7285558;19;153139;-54
2021/10/20 07:14:33;;;;;;;;;;;;;;;20.80;87.45;99904.63;7285432;19;153535;-53
2021/10/20 07:17:01;;;;;;;;;;;;;;;20.79;87.07;99926.25;7285557;19;153763;-53
2021/10/20 07:19:28;;;;;;;;;;;;;;;20.80;87.24;99913.06;7293206;19;152042;-53
2021/10/20 07:21:55;;;;;;;;;;;;;;;20.76;87.46;99912.03;7287773;19;154225;-53
2021/10/20 07:24:22;;;;;;;;;;;;;;;20.74;87.34;99911.56;7288553;19;151915;-53
2021/10/20 07:26:50;;;;;;;;;;;;;;;20.78;87.46;99899.34;7288535;19;153930;-56
2021/10/20 07:29:17;;;;;;;;;;;;;;;20.84;87.29;99897.19;7286713;19;153785;-54
2021/10/20 07:31:44;;;;;;;;;;;;;;;20.81;86.73;99903.44;7287309;19;152011;-53
2021/10/20 07:34:11;;;;;;;;;;;;;;;20.80;86.26;99897.00;7288429;19;152570;-53
2021/10/20 07:36:38;;;;;;;;;;;;;;;20.81;85.47;99883.78;7286903;19;154603;-53
2021/10/20 07:39:05;;;;;;;;;;;;;;;20.81;84.93;99900.63;7288128;19;151799;-53
2021/10/20 07:41:32;;;;;;;;;;;;;;;20.81;84.62;99901.47;7292758;19;153733;-53
2021/10/20 07:44:01;;;;;;;;;;;;;;;20.81;84.16;99887.44;7287412;19;152486;-54
2021/10/20 07:46:29;;;;;;;;;;;;;;;20.81;84.67;99890.25;7286517;19;152933;-53
2021/10/20 07:48:56;;;;;;;;;;;;;;;20.82;84.14;99888.25;7287022;19;154650;-53
2021/10/20 07:51:23;;;;;;;;;;;;;;;20.79;83.83;99878.53;7284794;19;152210;-53
2021/10/20 07:53:50;;;;;;;;;;;;;;;20.79;83.97;99867.31;7287799;19;153345;-54
2021/10/20 07:56:17;;;;;;;;;;;;;;;20.79;83.30;99846.81;7286843;19;154910;-54
2021/10/20 07:58:44;;;;;;;;;;;;;;;20.79;83.42;99829.97;7285676;19;151901;-53
2021/10/20 08:01:11;;;;;;;;;;;;;;;20.78;83.10;99815.13;7287870;19;152804;-53
2021/10/20 08:03:39;;;;;;;;;;;;;;;20.78;83.24;99840.38;7293697;19;154779;-53
2021/10/20 08:06:06;;;;;;;;;;;;;;;20.79;82.80;99864.50;7285621;19;153876;-53
2021/10/20 08:08:33;;;;;;;;;;;;;;;20.78;82.55;99868.47;7286018;19;154330;-54
2021/10/20 08:11:00;;;;;;;;;;;;;;;20.78;82.81;99890.91;7286718;19;151662;-54
2021/10/20 08:13:27;;;;;;;;;;;;;;;20.77;82.33;99883.66;7282578;19;153228;-54
2021/10/20 08:15:54;;;;;;;;;;;;;;;20.78;82.32;99874.06;7275441;19;154455;-54
2021/10/20 08:18:22;;;;;;;;;;;;;;;20.77;82.01;99868.78;7286269;19;151826;-53
2021/10/20 08:20:50;;;;;;;;;;;;;;;20.76;81.93;99882.00;7287068;19;152720;-53
2021/10/20 08:23:17;;;;;;;;;;;;;;;20.76;81.70;99883.97;7285589;19;154340;-53
2021/10/20 08:25:44;;;;;;;;;;;;;;;20.75;81.96;99894.41;7295400;19;152056;-54
2021/10/20 08:28:11;;;;;;;;;;;;;;;20.76;81.67;99896.03;7286034;19;153455;-54
2021/10/20 08:30:39;;;;;;;;;;;;;;;20.76;81.00;99893.22;7285061;19;152155;-54
2021/10/20 08:33:06;;;;;;;;;;;;;;;20.76;81.28;99886.78;7280407;19;152680;-53
2021/10/20 08:35:33;;;;;;;;;;;;;;;20.75;80.89;99888.78;7283497;19;154396;-54
2021/10/20 08:38:01;;;;;;;;;;;;;;;20.75;80.79;99896.38;7286817;19;151770;-54
2021/10/20 08:40:33;;;;;;;;;;;;;;;20.73;80.58;99885.47;7283793;19;153730;-53
2021/10/20 08:43:04;;;;;;;;;;;;;;;20.73;80.77;99907.94;7283042;19;154188;-54
2021/10/20 08:45:31;;;;;;;;;;;;;;;20.74;80.61;99897.53;7291165;19;151885;-53
2021/10/20 08:47:59;;;;;;;;;;;;;;;20.72;80.47;99900.66;7285666;19;153768;-54
2021/10/20 08:50:28;;;;;;;;;;;;;;;20.73;79.98;99909.91;7282821;19;151812;-54
2021/10/20 08:52:55;;;;;;;;;;;;;;;20.73;77.46;99907.13;7283803;19;153383;-56
2021/10/20 08:55:22;;;;;;;;;;;;;;;20.68;76.01;99899.69;7283019;19;153750;-54
2021/10/20 08:57:51;;;;;;;;;;;;;;;20.66;77.31;99890.81;7283566;19;152194;-53
2021/10/20 09:00:18;;;;;;;;;;;;;;;20.65;77.97;99891.97;7284515;19;153616;-54
2021/10/20 09:02:47;;;;;;;;;;;;;;;20.62;78.49;99901.06;7283444;19;153348;-54
2021/10/20 09:05:16;;;;;;;;;;;;;;;20.60;78.86;99900.56;7283206;19;151881;-53
2021/10/20 09:07:44;;;;;;;;;;;;;;;20.61;79.08;99902.22;7290666;19;153593;-54
2021/10/20 09:10:11;;;;;;;;;;;;;;;20.60;78.50;99905.34;7285385;19;151989;-54
2021/10/20 09:12:40;;;;;;;;;;;;;;;20.59;78.58;99912.94;7284118;19;153301;-53
2021/10/20 09:15:09;;;;;;;;;;;;;;;20.59;78.52;99912.94;7282249;19;153474;-54
2021/10/20 09:17:39;;;;;;;;;;;;;;;20.58;78.60;99893.63;7281401;19;152699;-53
2021/10/20 09:20:17;;;;;;;;;;;;;;;20.57;78.54;99890.00;7284538;19;152656;-53
2021/10/20 09:22:47;;;;;;;;;;;;;;;20.56;78.53;99874.31;7284908;19;153378;-53
2021/10/20 09:25:17;;;;;;;;;;;;;;;20.56;78.15;99874.31;7282340;19;151870;-53
2021/10/20 09:27:44;;;;;;;;;;;;;;;20.56;78.49;99893.97;7285511;19;153071;-53
2021/10/20 09:30:12;;;;;;;;;;;;;;;20.59;77.98;99884.03;7290519;19;154134;-53
2021/10/20 09:32:41;;;;;;;;;;;;;;;20.60;78.07;99885.69;7281306;19;152687;-54
2021/10/20 09:35:10;;;;;;;;;;;;;;;20.59;77.66;99876.44;7280719;19;154007;-53
2021/10/20 09:37:38;;;;;;;;;;;;;;;20.59;77.39;99893.28;7282474;19;152087;-53
2021/10/20 09:40:06;;;;;;;;;;;;;;;20.59;77.65;99882.06;7281829;19;152926;-54
2021/10/20 09:42:36;;;;;;;;;;;;;;;20.59;77.67;99886.84;7283780;19;153708;-54
2021/10/20 09:45:03;;;;;;;;;;;;;;;20.60;77.38;99882.88;7283877;19;151791;-55
2021/10/20 09:47:30;;;;;;;;;;;;;;;20.60;77.45;99875.28;7284528;19;152524;-53
2021/10/20 09:49:58;;;;;;;;;;;;;;;20.61;77.03;99874.13;7282910;19;154206;-53
2021/10/20 09:52:25;;;;;;;;;;;;;;;20.60;77.01;99874.47;7289932;19;151903;-54
2021/10/20 09:54:52;;;;;;;;;;;;;;;20.60;76.57;99869.69;7280187;19;152844;-53
2021/10/20 09:57:29;;;;;;;;;;;;;;;20.60;76.82;99868.84;7284001;19;151794;-53
2021/10/20 09:59:56;;;;;;;;;;;;;;;20.60;77.04;99866.03;7286639;19;153043;-53
2021/10/20 10:02:23;;;;;;;;;;;;;;;20.62;76.66;99855.31;7289961;19;152563;-53
2021/10/20 10:04:51;;;;;;;;;;;;;;;20.63;76.69;99837.31;7289628;19;152073;-53
2021/10/20 10:07:18;;;;;;;;;;;;;;;20.63;76.29;99834.50;7290277;19;153834;-53
2021/10/20 10:09:45;;;;;;;;;;;;;;;20.62;76.30;99836.50;7288121;19;154294;-53
2021/10/20 10:12:15;;;;;;;;;;;;;;;20.63;76.01;99840.94;7289841;19;151563;-53
2021/10/20 10:14:45;;;;;;;;;;;;;;;20.60;75.94;99830.38;7295698;19;153443;-54
2021/10/20 10:17:14;;;;;;;;;;;;;;;20.61;76.24;99829.25;7287142;19;151988;-53
2021/10/20 10:19:41;;;;;;;;;;;;;;;20.62;76.02;99822.47;7286218;19;153455;-53
2021/10/20 10:22:11;;;;;;;;;;;;;;;20.64;75.88;99819.31;7287062;19;153552;-53
2021/10/20 10:24:41;;;;;;;;;;;;;;;20.64;75.99;99803.28;7287786;19;151870;-53
2021/10/20 10:27:10;;;;;;;;;;;;;;;20.63;75.92;99796.03;7289945;19;152007;-53
2021/10/20 10:29:40;;;;;;;;;;;;;;;20.65;75.76;99804.13;7284958;19;154057;-53
2021/10/20 10:32:08;;;;;;;;;;;;;;;20.64;75.65;99782.81;7288715;19;152253;-54
2021/10/20 10:34:36;;;;;;;;;;;;;;;20.66;75.39;99784.16;7290378;19;152678;-55
2021/10/20 10:37:04;;;;;;;;;;;;;;;20.66;75.18;99778.53;7290840;19;153797;-54
2021/10/20 10:39:32;;;;;;;;;;;;;;;20.68;75.20;99772.56;7289237;19;152705;-53
2021/10/20 10:42:02;;;;;;;;;;;;;;;20.65;75.36;99768.47;7288255;19;153569;-53
2021/10/20 10:44:30;;;;;;;;;;;;;;;20.66;75.07;99766.47;7288046;19;151828;-53
2021/10/20 10:47:01;;;;;;;;;;;;;;;20.68;74.76;99761.34;7287080;19;153734;-54
2021/10/20 10:49:30;;;;;;;;;;;;;;;20.68;75.10;99759.34;7285745;19;153719;-53
2021/10/20 10:52:00;;;;;;;;;;;;;;;20.70;75.21;99761.84;7288878;19;151763;-53
2021/10/20 10:54:30;;;;;;;;;;;;;;;20.68;75.23;99748.13;7288235;19;152754;-53
2021/10/20 10:57:00;;;;;;;;;;;;;;;20.67;75.23;99754.91;7291401;19;154305;-53
2021/10/20 10:59:27;;;;;;;;;;;;;;;20.69;74.70;99752.59;7285797;19;152793;-53
2021/10/20 11:01:57;;;;;;;;;;;;;;;20.69;74.86;99749.78;7286737;19;154249;-53
2021/10/20 11:04:26;;;;;;;;;;;;;;;20.70;74.65;99748.63;7286806;19;152040;-53
2021/10/20 11:06:54;;;;;;;;;;;;;;;20.71;74.68;99741.03;7288331;19;153052;-53
2021/10/20 11:09:26;;;;;;;;;;;;;;;20.69;74.82;99746.97;7283951;19;154053;-54
2021/10/20 11:11:54;;;;;;;;;;;;;;;20.69;74.34;99738.56;7284385;19;151983;-54
2021/10/20 11:14:23;;;;;;;;;;;;;;;20.69;74.23;99730.13;7288454;19;152844;-53
2021/10/20 11:16:55;;;;;;;;;;;;;;;20.71;74.30;99741.03;7283915;19;153896;-53
2021/10/20 11:19:23;;;;;;;;;;;;;;;20.70;74.31;99722.53;7290241;19;154469;-53
2021/10/20 11:21:51;;;;;;;;;;;;;;;20.69;73.98;99723.69;7286584;19;154055;-53
2021/10/20 11:24:18;;;;;;;;;;;;;;;20.69;74.08;99710.47;7285745;19;151899;-54
2021/10/20 11:26:46;;;;;;;;;;;;;;;20.69;73.94;99715.28;7287769;19;153376;-55
2021/10/20 11:29:13;;;;;;;;;;;;;;;20.67;73.89;99703.59;7285733;19;152981;-54
2021/10/20 11:31:50;;;;;;;;;;;;;;;20.68;73.65;99708.00;7285876;19;153391;-54
2021/10/20 11:34:19;;;;;;;;;;;;;;;20.67;73.56;99724.03;7284332;19;152742;-55
2021/10/20 11:36:46;;;;;;;;;;;;;;;20.66;73.66;99725.22;7282722;19;153084;-54
2021/10/20 11:39:14;;;;;;;;;;;;;;;20.61;72.45;99714.19;7287393;19;151941;-53
2021/10/20 11:41:44;;;;;;;;;;;;;;;20.62;72.51;99713.03;7292412;19;153492;-53
2021/10/20 11:44:11;;;;;;;;;;;;;;;20.62;72.84;99692.56;7285752;19;152039;-54
2021/10/20 11:46:43;;;;;;;;;;;;;;;20.60;72.77;99703.28;7288352;19;152807;-54
2021/10/20 11:49:10;;;;;;;;;;;;;;;20.60;72.42;99711.69;7285701;19;153932;-54
2021/10/20 11:51:37;;;;;;;;;;;;;;;20.61;72.24;99708.56;7279111;19;151941;-54
2021/10/20 11:54:05;;;;;;;;;;;;;;;20.63;72.46;99688.56;7283998;19;152624;-53
2021/10/20 11:56:32;;;;;;;;;;;;;;;20.65;72.53;99697.47;7284406;19;153374;-53
2021/10/20 11:58:59;;;;;;;;;;;;;;;20.63;72.75;99697.81;7282580;19;151522;-53
2021/10/20 12:01:28;;;;;;;;;;;;;;;20.66;72.44;99687.91;7283007;19;152558;-53
2021/10/20 12:03:55;;;;;;;;;;;;;;;20.67;72.50;99690.34;7291034;19;153910;-53
2021/10/20 12:06:22;;;;;;;;;;;;;;;20.66;71.04;99688.72;7285765;19;153461;-54
2021/10/20 12:08:49;;;;;;;;;;;;;;;20.67;71.48;99675.50;7282294;19;154279;-53
2021/10/20 12:11:18;;;;;;;;;;;;;;;20.69;71.76;99679.63;7283919;19;151976;-54
2021/10/20 12:13:46;;;;;;;;;;;;;;;20.69;71.35;99682.41;7281508;19;152670;-58
2021/10/20 12:16:15;;;;;;;;;;;;;;;20.69;70.91;99682.41;7283901;19;154102;-53
2021/10/20 12:18:43;;;;;;;;;;;;;;;20.72;71.14;99683.72;7279983;19;151833;-53
2021/10/20 12:21:11;;;;;;;;;;;;;;;20.71;70.73;99684.91;7276647;19;152650;-53
2021/10/20 12:23:39;;;;;;;;;;;;;;;20.72;70.37;99692.13;7284248;19;154395;-53
2021/10/20 12:26:06;;;;;;;;;;;;;;;20.72;70.14;99669.66;7293334;19;152353;-54
2021/10/20 12:28:34;;;;;;;;;;;;;;;20.72;70.51;99681.72;7280627;19;153848;-54
2021/10/20 12:31:04;;;;;;;;;;;;;;;20.71;69.83;99666.06;7284301;19;151885;-53
2021/10/20 12:33:36;;;;;;;;;;;;;;;20.72;69.64;99661.25;7281078;19;153528;-53
2021/10/20 12:36:05;;;;;;;;;;;;;;;20.72;70.32;99656.47;7284683;19;153828;-53